Time;durP1;ratioP1;P1;durP2;ratioP2;P2;SDS_P1;SDS_P2;PMS_P1;PMS_P2;Temp;Humidity;BMP_temperature;BMP_pressure;BME280_temperature;BME280_humidity;BME280_pressure;Samples;Min_cycle;Max_cycle;Signal;HPM_P1;HPM_P2
2022/12/27 00:02:16;;;;;;;0.60;0.50;;;18.30;64.00;;;;;;5053626;28;20297;-68
2022/12/27 00:04:42;;;;;;;0.80;0.70;;;18.40;64.10;;;;;;5077272;28;20177;-67
2022/12/27 00:07:07;;;;;;;0.77;0.77;;;18.30;64.00;;;;;;5081012;28;20196;-67
2022/12/27 00:09:33;;;;;;;0.50;0.50;;;18.30;63.90;;;;;;5076874;28;20196;-68
2022/12/27 00:11:59;;;;;;;0.60;0.60;;;18.40;64.10;;;;;;5066504;28;20241;-67
2022/12/27 00:14:25;;;;;;;0.40;0.40;;;18.40;64.00;;;;;;5077286;28;20542;-67
2022/12/27 00:16:51;;;;;;;1.20;0.70;;;18.40;64.00;;;;;;5077148;28;20189;-67
2022/12/27 00:19:16;;;;;;;1.48;0.60;;;18.40;64.00;;;;;;5068598;28;20232;-67
2022/12/27 00:21:42;;;;;;;1.23;0.68;;;18.30;63.90;;;;;;5077143;28;20690;-67
2022/12/27 00:24:09;;;;;;;0.60;0.50;;;18.40;64.00;;;;;;5060235;28;20181;-67
2022/12/27 00:26:37;;;;;;;0.50;0.50;;;18.40;64.00;;;;;;5060513;28;20588;-67
2022/12/27 00:29:03;;;;;;;0.85;0.60;;;18.40;64.00;;;;;;5085348;28;20293;-67
2022/12/27 00:31:31;;;;;;;0.68;0.60;;;18.40;64.00;;;;;;5066688;28;20205;-68
2022/12/27 00:34:00;;;;;;;0.75;0.50;;;18.40;64.00;;;;;;5065354;28;20251;-67
2022/12/27 00:36:29;;;;;;;0.68;0.60;;;18.40;64.00;;;;;;5076986;28;20192;-67
2022/12/27 00:38:58;;;;;;;0.68;0.50;;;18.40;64.00;;;;;;5057169;28;20220;-67
2022/12/27 00:41:24;;;;;;;1.40;0.60;;;18.40;64.00;;;;;;5076614;28;20205;-67
2022/12/27 00:43:50;;;;;;;0.77;0.70;;;18.40;64.00;;;;;;5094886;28;20731;-67
2022/12/27 00:46:16;;;;;;;0.82;0.60;;;18.40;64.00;;;;;;5060098;28;20272;-67
2022/12/27 00:48:43;;;;;;;1.10;0.60;;;18.30;63.90;;;;;;5060033;28;20192;-67
2022/12/27 00:51:15;;;;;;;0.95;0.70;;;18.40;64.00;;;;;;5068321;28;20240;-67
2022/12/27 00:53:41;;;;;;;1.40;0.77;;;18.40;63.90;;;;;;5076627;28;20200;-68
2022/12/27 00:56:12;;;;;;;0.52;0.47;;;18.40;64.00;;;;;;5094528;28;20272;-67
2022/12/27 00:58:38;;;;;;;1.88;0.73;;;18.40;64.00;;;;;;5094316;28;20201;-67
2022/12/27 01:01:15;;;;;;;0.98;0.60;;;18.40;64.00;;;;;;5094340;28;20200;-67
2022/12/27 01:03:40;;;;;;;1.83;0.70;;;18.40;64.00;;;;;;5056705;28;20213;-67
2022/12/27 01:06:11;;;;;;;1.25;0.65;;;18.40;64.20;;;;;;5074546;28;20289;-67
2022/12/27 01:08:37;;;;;;;2.13;0.60;;;18.40;63.90;;;;;;5059359;28;20260;-67
2022/12/27 01:11:04;;;;;;;1.63;0.60;;;18.30;63.70;;;;;;5093206;28;20196;-68
2022/12/27 01:13:30;;;;;;;0.75;0.57;;;18.30;63.80;;;;;;5076464;28;20191;-68
2022/12/27 01:15:56;;;;;;;0.70;0.65;;;18.30;63.80;;;;;;5094094;28;20192;-67
2022/12/27 01:18:22;;;;;;;0.75;0.52;;;18.40;64.00;;;;;;5075619;28;20213;-67
2022/12/27 01:20:48;;;;;;;0.50;0.50;;;18.40;63.90;;;;;;5058498;28;20191;-67
2022/12/27 01:23:14;;;;;;;1.05;0.45;;;18.40;63.90;;;;;;5073120;28;20189;-68
2022/12/27 01:25:40;;;;;;;0.47;0.40;;;18.40;63.90;;;;;;5088685;28;20207;-67
2022/12/27 01:28:05;;;;;;;1.08;0.60;;;18.40;63.90;;;;;;5075594;28;20242;-67
2022/12/27 01:30:31;;;;;;;1.38;0.77;;;18.40;63.80;;;;;;5057340;28;20189;-68
2022/12/27 01:32:57;;;;;;;1.52;0.85;;;18.40;63.90;;;;;;5092727;28;20221;-67
2022/12/27 01:35:23;;;;;;;0.85;0.50;;;18.40;63.90;;;;;;5066854;28;20284;-68
2022/12/27 01:37:50;;;;;;;1.40;0.70;;;18.40;63.90;;;;;;5075478;28;20635;-67
2022/12/27 01:40:15;;;;;;;0.68;0.50;;;18.40;63.90;;;;;;5075596;28;20196;-67
2022/12/27 01:42:54;;;;;;;0.98;0.50;;;18.40;63.80;;;;;;5072452;28;20210;-67
2022/12/27 01:45:28;;;;;;;1.20;0.70;;;18.40;63.90;;;;;;5093823;28;20181;-67
2022/12/27 01:48:20;;;;;;;0.68;0.50;;;18.40;63.90;;;;;;5075513;28;20249;-67
2022/12/27 01:50:53;;;;;;;0.75;0.57;;;18.40;63.80;;;;;;5070643;28;20195;-67
2022/12/27 01:53:35;;;;;;;0.80;0.60;;;18.40;64.70;;;;;;5075528;28;20246;-68
2022/12/27 01:56:21;;;;;;;0.60;0.60;;;18.40;63.80;;;;;;5075464;28;20241;-67
2022/12/27 01:58:57;;;;;;;1.27;0.70;;;18.40;63.80;;;;;;5059762;28;20213;-67
2022/12/27 02:01:29;;;;;;;0.52;0.52;;;18.40;63.80;;;;;;5071506;28;20197;-67
2022/12/27 02:04:06;;;;;;;1.20;0.80;;;18.40;63.90;;;;;;5047149;28;20596;-67
2022/12/27 02:06:34;;;;;;;0.70;0.50;;;18.40;63.80;;;;;;5063943;28;20193;-67
2022/12/27 02:09:09;;;;;;;1.10;0.55;;;18.40;63.80;;;;;;5054089;28;20281;-67
2022/12/27 02:11:52;;;;;;;0.75;0.50;;;18.30;63.70;;;;;;5058198;28;20345;-67
2022/12/27 02:14:33;;;;;;;0.60;0.60;;;18.40;63.80;;;;;;5058070;28;20189;-67
2022/12/27 02:17:15;;;;;;;0.95;0.60;;;18.40;63.80;;;;;;5074959;28;20728;-67
2022/12/27 02:19:51;;;;;;;0.55;0.50;;;18.40;63.90;;;;;;5068795;28;20212;-67
2022/12/27 02:26:10;;;;;;;0.75;0.50;;;18.40;63.80;;;;;;5079829;28;20224;-68
2022/12/27 02:28:59;;;;;;;0.70;0.52;;;18.30;63.60;;;;;;5068122;28;20189;-67
2022/12/27 02:31:54;;;;;;;0.47;0.47;;;18.30;63.70;;;;;;5090504;28;20677;-67
2022/12/27 02:34:33;;;;;;;0.70;0.60;;;18.30;63.70;;;;;;5071772;28;20193;-67
2022/12/27 02:37:07;;;;;;;0.57;0.57;;;18.40;63.70;;;;;;5054830;28;20193;-67
2022/12/27 02:39:39;;;;;;;1.70;0.63;;;18.30;63.50;;;;;;5074377;28;20230;-67
2022/12/27 02:53:37;;;;;;;2.03;0.60;;;18.30;63.60;;;;;;5071579;28;20205;-68
2022/12/27 03:03:20;;;;;;;0.80;0.70;;;18.30;63.50;;;;;;5085425;28;20296;-67
2022/12/27 03:18:17;;;;;;;0.70;0.68;;;18.30;63.40;;;;;;5091727;28;20219;-67
2022/12/27 03:26:23;;;;;;;0.45;0.45;;;18.30;63.30;;;;;;5073838;28;20231;-67
2022/12/27 03:34:37;;;;;;;1.08;0.40;;;18.30;63.30;;;;;;5062430;28;20197;-67
2022/12/27 03:43:09;;;;;;;1.33;0.60;;;18.30;63.20;;;;;;5081473;28;20202;-67
2022/12/27 03:43:33;;;;;;;0.60;0.60;;;18.30;63.20;;;;;;5076228;28;20201;-68
2022/12/27 03:46:33;;;;;;;0.82;0.70;;;18.30;63.20;;;;;;5061004;28;20193;-67
2022/12/27 03:49:22;;;;;;;0.82;0.50;;;18.30;63.20;;;;;;5039332;28;20285;-68
2022/12/27 03:52:08;;;;;;;0.50;0.50;;;18.30;63.00;;;;;;5055664;28;20240;-67
2022/12/27 03:54:40;;;;;;;0.50;0.50;;;18.30;63.00;;;;;;5061059;28;20234;-67
2022/12/27 03:57:14;;;;;;;1.50;0.60;;;18.30;63.10;;;;;;5080848;28;20193;-67
2022/12/27 03:59:40;;;;;;;0.32;0.30;;;18.30;63.00;;;;;;5070824;28;20215;-67
2022/12/27 04:02:07;;;;;;;1.17;0.60;;;18.30;63.10;;;;;;5074168;28;20194;-67
2022/12/27 04:04:33;;;;;;;1.10;0.40;;;18.30;63.00;;;;;;5068656;28;20280;-67
2022/12/27 04:06:59;;;;;;;0.60;0.50;;;18.30;63.00;;;;;;5069779;28;20181;-67
2022/12/27 04:36:52;;;;;;;0.85;0.60;;;18.30;62.70;;;;;;5095110;28;20238;-66
2022/12/27 04:39:18;;;;;;;0.40;0.40;;;18.20;62.60;;;;;;5084950;28;20197;-67
2022/12/27 04:56:06;;;;;;;0.60;0.55;;;18.30;62.60;;;;;;5094172;28;20280;-67
2022/12/27 04:58:33;;;;;;;0.68;0.50;;;18.30;62.60;;;;;;5068336;28;20276;-68
2022/12/27 05:03:50;;;;;;;2.15;0.70;;;18.20;62.30;;;;;;5084867;28;20242;-67
2022/12/27 05:06:17;;;;;;;1.02;0.70;;;18.30;62.30;;;;;;5078614;28;20185;-68
2022/12/27 05:14:14;;;;;;;1.10;1.00;;;18.30;62.40;;;;;;5076251;28;20212;-67
2022/12/27 05:16:42;;;;;;;1.00;0.80;;;18.30;62.40;;;;;;5076095;28;20189;-68
2022/12/27 05:19:11;;;;;;;1.17;0.95;;;18.30;62.40;;;;;;5059113;28;20206;-67
2022/12/27 05:27:13;;;;;;;1.33;0.70;;;18.20;62.20;;;;;;5072905;28;20177;-67
2022/12/27 05:29:39;;;;;;;1.00;0.82;;;18.20;62.00;;;;;;5080316;28;20181;-67
2022/12/27 05:32:05;;;;;;;1.40;0.93;;;18.30;62.10;;;;;;5071664;28;20205;-67
2022/12/27 05:34:31;;;;;;;1.23;0.80;;;18.20;62.10;;;;;;5067844;28;20191;-67
2022/12/27 05:36:56;;;;;;;1.00;0.90;;;18.20;62.00;;;;;;5075983;28;20181;-67
2022/12/27 05:39:22;;;;;;;1.00;0.90;;;18.20;62.00;;;;;;5075242;28;20213;-68
2022/12/27 05:41:48;;;;;;;1.05;0.77;;;18.20;62.00;;;;;;5060807;28;20201;-68
2022/12/27 05:44:14;;;;;;;1.35;0.80;;;18.20;62.00;;;;;;5078795;28;20172;-67
2022/12/27 05:46:39;;;;;;;1.10;0.95;;;18.20;62.00;;;;;;5058841;28;20205;-67
2022/12/27 05:49:05;;;;;;;1.05;0.90;;;18.20;61.90;;;;;;5075673;28;20196;-67
2022/12/27 05:51:31;;;;;;;0.75;0.70;;;18.20;61.90;;;;;;5074978;28;20208;-67
2022/12/27 05:53:57;;;;;;;0.85;0.85;;;18.20;62.00;;;;;;5072119;28;20182;-68
2022/12/27 05:56:23;;;;;;;2.22;1.17;;;18.20;62.00;;;;;;5075495;28;20671;-68
2022/12/27 05:58:53;;;;;;;1.60;1.10;;;18.20;61.90;;;;;;5065216;28;20295;-67
2022/12/27 06:01:19;;;;;;;1.23;1.10;;;18.20;61.90;;;;;;5075244;28;20761;-67
2022/12/27 06:03:45;;;;;;;1.88;1.10;;;18.20;61.90;;;;;;5066892;28;20177;-67
2022/12/27 06:06:12;;;;;;;1.55;1.45;;;18.20;61.90;;;;;;5093190;28;20185;-67
2022/12/27 06:08:38;;;;;;;2.13;1.42;;;18.30;62.00;;;;;;5067181;28;20196;-67
2022/12/27 06:11:11;;;;;;;1.25;1.15;;;18.20;61.70;;;;;;5062793;28;20173;-67
2022/12/27 06:13:38;;;;;;;1.60;1.10;;;18.20;61.80;;;;;;5071628;28;20186;-67
2022/12/27 06:16:07;;;;;;;2.15;1.40;;;18.20;61.70;;;;;;5067019;28;20185;-68
2022/12/27 06:18:35;;;;;;;1.20;1.02;;;18.20;61.50;;;;;;5057672;28;20205;-67
2022/12/27 06:21:09;;;;;;;2.50;1.20;;;18.20;61.50;;;;;;5074910;28;20267;-67
2022/12/27 06:23:39;;;;;;;1.50;1.10;;;18.20;61.70;;;;;;5075111;28;20189;-68
2022/12/27 06:26:08;;;;;;;1.73;1.10;;;18.20;61.70;;;;;;5075057;28;20180;-68
2022/12/27 06:28:34;;;;;;;1.70;1.48;;;18.20;62.50;;;;;;5074261;28;20185;-68
2022/12/27 06:31:01;;;;;;;1.17;1.08;;;18.20;61.70;;;;;;5058126;28;20189;-68
2022/12/27 06:33:27;;;;;;;1.58;1.05;;;18.20;61.70;;;;;;5089377;28;20291;-68
2022/12/27 06:35:53;;;;;;;1.38;1.08;;;18.20;61.70;;;;;;5072591;28;20246;-67
2022/12/27 06:38:19;;;;;;;1.10;1.00;;;18.20;61.70;;;;;;5080216;28;20209;-67
2022/12/27 06:40:45;;;;;;;1.40;1.30;;;18.20;61.60;;;;;;5066281;28;20177;-67
2022/12/27 06:43:11;;;;;;;1.35;1.25;;;18.20;61.60;;;;;;5071134;28;20218;-67
2022/12/27 06:45:37;;;;;;;1.48;1.20;;;18.20;61.90;;;;;;5074567;28;20180;-67
2022/12/27 06:48:04;;;;;;;2.33;1.15;;;18.20;61.50;;;;;;5067631;28;20193;-67
2022/12/27 06:50:29;;;;;;;2.13;1.15;;;18.20;61.60;;;;;;5074730;28;20189;-67
2022/12/27 06:52:55;;;;;;;1.42;1.02;;;18.20;61.60;;;;;;5068628;28;20228;-67
2022/12/27 06:55:21;;;;;;;1.35;1.10;;;18.20;61.50;;;;;;5044757;28;20718;-67
2022/12/27 06:57:48;;;;;;;1.95;1.15;;;18.20;61.40;;;;;;5057579;28;20272;-67
2022/12/27 07:00:15;;;;;;;2.10;1.00;;;18.20;61.40;;;;;;5074308;28;20181;-67
2022/12/27 07:02:41;;;;;;;1.05;0.95;;;18.20;61.50;;;;;;5066595;28;20200;-67
2022/12/27 07:05:07;;;;;;;1.30;1.00;;;18.20;61.40;;;;;;5067367;28;20193;-67
2022/12/27 07:07:33;;;;;;;0.93;0.90;;;18.20;61.10;;;;;;5082788;28;20192;-68
2022/12/27 07:09:58;;;;;;;1.20;1.00;;;18.20;61.30;;;;;;5088238;28;20196;-68
2022/12/27 07:12:24;;;;;;;1.42;1.00;;;18.20;61.30;;;;;;5073745;28;20209;-67
2022/12/27 07:14:50;;;;;;;1.52;1.00;;;18.20;61.20;;;;;;5089617;28;20535;-67
2022/12/27 07:17:16;;;;;;;1.33;0.82;;;18.20;61.30;;;;;;5057853;28;20205;-67
2022/12/27 07:19:42;;;;;;;1.30;1.20;;;18.20;61.30;;;;;;5096178;28;20247;-67
2022/12/27 07:22:08;;;;;;;0.90;0.80;;;18.20;61.20;;;;;;5061699;28;20288;-67
2022/12/27 07:24:33;;;;;;;0.98;0.90;;;18.20;61.30;;;;;;5077144;28;20189;-67
2022/12/27 07:27:01;;;;;;;1.08;0.73;;;18.20;61.30;;;;;;5074882;28;20239;-68
2022/12/27 07:29:26;;;;;;;1.30;1.10;;;18.20;61.20;;;;;;5092199;28;20193;-67
2022/12/27 07:31:52;;;;;;;0.90;0.90;;;18.20;61.20;;;;;;5078169;28;20211;-67
2022/12/27 07:34:20;;;;;;;1.33;1.08;;;18.20;61.20;;;;;;5086472;28;20212;-67
2022/12/27 07:36:46;;;;;;;1.20;0.90;;;18.20;61.20;;;;;;5078126;28;20238;-68
2022/12/27 07:39:12;;;;;;;1.20;1.00;;;18.20;61.10;;;;;;5074346;28;20308;-67
2022/12/27 07:41:38;;;;;;;1.30;1.00;;;18.20;61.10;;;;;;5077317;28;20204;-67
2022/12/27 07:44:06;;;;;;;1.45;1.00;;;18.20;61.10;;;;;;5074606;28;20182;-67
2022/12/27 07:46:33;;;;;;;1.30;1.00;;;18.20;61.10;;;;;;5076416;28;20280;-67
2022/12/27 07:48:58;;;;;;;1.60;1.10;;;18.20;61.10;;;;;;5077660;28;20203;-68
2022/12/27 07:51:26;;;;;;;1.20;1.10;;;18.20;61.00;;;;;;5077890;28;20209;-68
2022/12/27 07:53:53;;;;;;;1.92;1.30;;;18.20;61.00;;;;;;5095884;28;20181;-68
2022/12/27 07:56:24;;;;;;;1.63;1.30;;;18.20;61.00;;;;;;5060896;28;20246;-68
2022/12/27 07:58:51;;;;;;;1.27;1.17;;;18.20;60.90;;;;;;5077653;28;20203;-67
2022/12/27 08:01:21;;;;;;;1.42;1.30;;;18.20;60.90;;;;;;5064416;28;20204;-67
2022/12/27 08:03:47;;;;;;;1.45;1.35;;;18.20;60.80;;;;;;5087973;28;20636;-68
2022/12/27 08:06:27;;;;;;;1.50;1.30;;;18.20;60.90;;;;;;5095484;28;20181;-68
2022/12/27 08:08:57;;;;;;;1.50;1.40;;;18.20;60.90;;;;;;5082100;28;20200;-67
2022/12/27 08:11:25;;;;;;;1.50;1.10;;;18.20;60.90;;;;;;5074712;28;20278;-68
2022/12/27 08:13:52;;;;;;;1.58;1.48;;;18.20;60.90;;;;;;5095709;28;20250;-68
2022/12/27 08:16:21;;;;;;;1.33;1.20;;;18.20;60.80;;;;;;5068963;28;20191;-67
2022/12/27 08:18:47;;;;;;;2.80;1.77;;;18.20;60.90;;;;;;5086353;28;20269;-68
2022/12/27 08:21:14;;;;;;;2.42;1.58;;;18.20;60.80;;;;;;5060576;28;20193;-68
2022/12/27 08:23:40;;;;;;;1.40;1.30;;;18.20;60.80;;;;;;5068822;28;20185;-68
2022/12/27 08:26:07;;;;;;;1.83;1.63;;;18.20;60.70;;;;;;5060252;28;20197;-67
2022/12/27 08:28:34;;;;;;;2.10;1.90;;;18.20;60.80;;;;;;5077012;28;20272;-67
2022/12/27 08:31:00;;;;;;;2.55;1.92;;;18.20;60.70;;;;;;5059302;28;20673;-67
2022/12/27 08:33:27;;;;;;;1.80;1.70;;;18.20;60.80;;;;;;5092434;28;20215;-67
2022/12/27 08:35:53;;;;;;;2.50;2.00;;;18.20;61.40;;;;;;5065419;28;20189;-67
2022/12/27 08:38:19;;;;;;;2.97;2.38;;;18.20;60.70;;;;;;5090274;28;20217;-67
2022/12/27 08:40:45;;;;;;;2.83;1.88;;;18.20;60.70;;;;;;5073295;28;20209;-71
2022/12/27 08:43:12;;;;;;;2.40;1.98;;;18.20;61.40;;;;;;5072216;28;20235;-68
2022/12/27 08:45:38;;;;;;;1.77;1.67;;;18.20;60.70;;;;;;5083840;28;20204;-69
2022/12/27 08:48:05;;;;;;;1.85;1.58;;;18.20;60.70;;;;;;5073406;28;20207;-68
2022/12/27 08:50:31;;;;;;;3.05;1.83;;;18.20;61.40;;;;;;5064348;28;20189;-68
2022/12/27 08:53:00;;;;;;;1.88;1.60;;;18.20;60.70;;;;;;5061162;28;20212;-69
2022/12/27 08:55:28;;;;;;;2.40;1.77;;;18.30;60.80;;;;;;5094415;28;20184;-68
2022/12/27 08:58:04;;;;;;;1.90;1.70;;;18.20;60.60;;;;;;5076300;28;20275;-68
2022/12/27 09:00:31;;;;;;;1.92;1.83;;;18.30;60.70;;;;;;5080445;28;20195;-69
2022/12/27 09:02:58;;;;;;;2.15;1.90;;;18.30;60.70;;;;;;5075922;28;20200;-69
2022/12/27 09:05:26;;;;;;;2.03;1.83;;;18.30;60.70;;;;;;5065181;28;20174;-68
2022/12/27 09:07:52;;;;;;;1.90;1.70;;;18.30;60.80;;;;;;5077085;28;20215;-68
2022/12/27 09:10:19;;;;;;;2.05;1.73;;;18.20;60.60;;;;;;5084191;28;20203;-69
2022/12/27 09:12:46;;;;;;;1.95;1.60;;;18.30;60.70;;;;;;5093721;28;20232;-68
2022/12/27 09:15:12;;;;;;;2.88;1.48;;;18.30;60.70;;;;;;5076139;28;20181;-69
2022/12/27 09:17:39;;;;;;;1.73;1.60;;;18.30;60.70;;;;;;5082580;28;20276;-68
2022/12/27 09:20:05;;;;;;;1.77;1.65;;;18.30;60.80;;;;;;5078354;28;20193;-69
2022/12/27 09:22:31;;;;;;;1.58;1.48;;;18.30;60.80;;;;;;5094128;28;20205;-68
2022/12/27 09:24:57;;;;;;;1.85;1.52;;;18.30;60.80;;;;;;5070965;28;20189;-68
2022/12/27 09:27:23;;;;;;;1.63;1.52;;;18.30;60.80;;;;;;5072168;28;20170;-68
2022/12/27 09:29:49;;;;;;;1.60;1.45;;;18.30;60.80;;;;;;5083159;28;20608;-68
2022/12/27 09:32:15;;;;;;;1.90;1.70;;;18.30;60.80;;;;;;5076839;28;20215;-67
2022/12/27 09:34:41;;;;;;;2.03;1.60;;;18.30;60.80;;;;;;5091332;28;20189;-68
2022/12/27 09:37:06;;;;;;;1.48;1.38;;;18.30;60.70;;;;;;5075493;28;20181;-67
2022/12/27 09:39:32;;;;;;;1.60;1.50;;;18.30;60.80;;;;;;5093255;28;20212;-67
2022/12/27 09:42:20;;;;;;;1.40;1.30;;;18.30;60.80;;;;;;5058516;28;20228;-68
2022/12/27 09:45:11;;;;;;;1.33;1.23;;;18.30;60.80;;;;;;5058645;28;20644;-67
2022/12/27 09:48:04;;;;;;;1.45;1.35;;;18.30;60.80;;;;;;5075439;28;20185;-68
2022/12/27 09:50:51;;;;;;;2.15;1.60;;;18.30;60.80;;;;;;5074975;28;20234;-67
2022/12/27 09:53:32;;;;;;;1.40;1.30;;;18.30;60.80;;;;;;5067250;28;20176;-68
2022/12/27 09:55:58;;;;;;;1.30;1.10;;;18.30;60.80;;;;;;5051543;28;20640;-68
2022/12/27 09:58:55;;;;;;;2.45;1.50;;;18.30;60.80;;;;;;5074979;28;20212;-67
2022/12/27 10:01:32;;;;;;;1.63;1.30;;;18.30;60.80;;;;;;5065411;28;20196;-67
2022/12/27 10:03:58;;;;;;;2.30;1.30;;;18.30;60.80;;;;;;5051339;28;20180;-68
2022/12/27 10:06:48;;;;;;;1.52;1.20;;;18.30;60.70;;;;;;5075066;28;20181;-68
2022/12/27 10:09:54;;;;;;;1.38;1.20;;;18.30;61.60;;;;;;5062632;28;20189;-67
2022/12/27 10:12:47;;;;;;;1.30;1.20;;;18.30;60.80;;;;;;5036386;22;20232;-70
2022/12/27 10:15:16;;;;;;;2.42;1.20;;;18.30;60.80;;;;;;4966130;28;20657;-70
2022/12/27 10:18:12;;;;;;;1.58;1.35;;;18.40;60.90;;;;;;4979061;28;20202;-70
2022/12/27 10:20:55;;;;;;;2.00;1.30;;;18.30;60.80;;;;;;4968338;28;20191;-70
2022/12/27 10:23:31;;;;;;;1.40;1.30;;;18.40;60.90;;;;;;5037176;28;20202;-70
2022/12/27 10:26:04;;;;;;;1.20;1.10;;;18.40;60.90;;;;;;5053556;28;20182;-70
2022/12/27 10:29:01;;;;;;;1.35;1.25;;;18.40;60.90;;;;;;5059875;28;20189;-70
2022/12/27 10:31:29;;;;;;;1.58;1.33;;;18.40;60.90;;;;;;5050245;28;20853;-70
2022/12/27 10:33:56;;;;;;;1.38;1.17;;;18.40;60.90;;;;;;5043716;28;20179;-70
2022/12/27 10:36:26;;;;;;;1.20;1.10;;;18.40;60.90;;;;;;5062412;28;20273;-70
2022/12/27 10:38:53;;;;;;;1.10;1.02;;;18.40;60.90;;;;;;5055927;28;20225;-70
2022/12/27 10:41:35;;;;;;;1.25;1.08;;;18.40;60.90;;;;;;5080043;28;20201;-70
2022/12/27 10:44:01;;;;;;;1.30;1.20;;;18.40;60.90;;;;;;5065816;28;20181;-70
2022/12/27 10:46:31;;;;;;;1.70;1.30;;;18.40;60.90;;;;;;5063538;28;20191;-70
2022/12/27 10:49:06;;;;;;;2.35;1.20;;;18.40;60.90;;;;;;5055099;28;20185;-70
2022/12/27 10:51:39;;;;;;;1.55;1.30;;;18.40;60.90;;;;;;5037561;28;20296;-70
2022/12/27 10:54:13;;;;;;;1.92;1.10;;;18.40;60.90;;;;;;5052552;28;20235;-70
2022/12/27 10:56:42;;;;;;;1.90;1.30;;;18.40;60.80;;;;;;5043890;28;20244;-70
2022/12/27 10:59:20;;;;;;;1.25;0.90;;;18.40;60.90;;;;;;5081266;28;20217;-70
2022/12/27 11:02:06;;;;;;;1.40;1.30;;;18.40;60.90;;;;;;5051796;28;20262;-70
2022/12/27 11:04:32;;;;;;;1.02;1.00;;;18.40;60.80;;;;;;5034256;28;20277;-70
2022/12/27 11:07:10;;;;;;;1.13;1.02;;;18.40;60.90;;;;;;5059685;28;20273;-69
2022/12/27 11:09:42;;;;;;;1.25;1.10;;;18.40;60.90;;;;;;5058197;28;20198;-70
2022/12/27 11:12:31;;;;;;;1.10;1.00;;;18.40;60.80;;;;;;5064929;28;20232;-70
2022/12/27 11:15:10;;;;;;;1.20;1.10;;;18.40;60.90;;;;;;5067407;28;20186;-70
2022/12/27 11:17:50;;;;;;;2.33;1.08;;;18.40;60.80;;;;;;5063545;28;20200;-69
2022/12/27 11:20:21;;;;;;;1.83;1.10;;;18.40;60.90;;;;;;5069962;28;20193;-70
2022/12/27 11:22:56;;;;;;;1.00;0.90;;;18.40;60.80;;;;;;5081089;28;20286;-70
2022/12/27 11:25:26;;;;;;;1.48;1.00;;;18.40;60.90;;;;;;5076155;28;20186;-70
2022/12/27 11:28:30;;;;;;;1.52;0.90;;;18.40;60.90;;;;;;5056291;28;20182;-69
2022/12/27 11:31:03;;;;;;;1.30;1.20;;;18.40;60.80;;;;;;5050330;28;20344;-70
2022/12/27 11:33:39;;;;;;;1.42;1.10;;;18.40;60.90;;;;;;5062198;28;20213;-70
2022/12/27 11:36:09;;;;;;;1.02;1.00;;;18.40;60.90;;;;;;5047235;28;20177;-70
2022/12/27 11:38:41;;;;;;;1.20;1.08;;;18.40;60.90;;;;;;5051616;28;20214;-70
2022/12/27 11:41:29;;;;;;;1.83;1.02;;;18.40;60.80;;;;;;5041614;28;20191;-70
2022/12/27 11:44:20;;;;;;;1.13;1.02;;;18.40;60.70;;;;;;5086948;28;20284;-70
2022/12/27 11:47:05;;;;;;;1.00;1.00;;;18.40;60.80;;;;;;5075319;28;20190;-70
2022/12/27 11:49:42;;;;;;;1.77;1.00;;;18.40;60.80;;;;;;5066895;28;20221;-70
2022/12/27 11:52:39;;;;;;;1.30;1.00;;;18.40;60.80;;;;;;5065146;28;20244;-70
2022/12/27 11:55:29;;;;;;;0.90;0.90;;;18.50;60.90;;;;;;5075708;28;20191;-70
2022/12/27 11:58:33;;;;;;;1.20;1.00;;;18.50;60.80;;;;;;5086819;28;20185;-70
2022/12/27 12:01:17;;;;;;;1.00;0.88;;;18.40;60.70;;;;;;5053838;28;20242;-70
2022/12/27 12:04:09;;;;;;;1.60;0.85;;;18.40;60.80;;;;;;5059941;28;20200;-70
2022/12/27 12:07:05;;;;;;;2.00;1.00;;;18.40;60.90;;;;;;5073652;28;20190;-70
2022/12/27 12:10:11;;;;;;;1.10;0.98;;;18.40;60.80;;;;;;5070491;28;20229;-70
2022/12/27 12:13:19;;;;;;;1.40;1.10;;;18.40;60.70;;;;;;5071504;28;20270;-70
2022/12/27 12:15:48;;;;;;;1.45;0.80;;;18.40;60.80;;;;;;5069860;28;20215;-70
2022/12/27 12:18:59;;;;;;;1.30;0.85;;;18.40;61.80;;;;;;5083924;28;20217;-70
2022/12/27 12:21:51;;;;;;;0.95;0.95;;;18.40;60.80;;;;;;5061698;28;20206;-70
2022/12/27 12:24:26;;;;;;;0.88;0.88;;;18.40;60.80;;;;;;5065889;28;20197;-70
2022/12/27 12:27:27;;;;;;;0.75;0.75;;;18.40;60.70;;;;;;5082304;28;20664;-69
2022/12/27 12:30:47;;;;;;;1.10;0.77;;;18.40;60.80;;;;;;5062436;28;20186;-70
2022/12/27 12:34:11;;;;;;;1.13;1.05;;;18.50;60.80;;;;;;5057781;28;20210;-70
2022/12/27 12:36:55;;;;;;;1.60;1.00;;;18.40;60.70;;;;;;5061774;28;20189;-70
2022/12/27 12:39:47;;;;;;;1.00;1.00;;;18.40;60.70;;;;;;5078170;28;20249;-69
2022/12/27 12:42:31;;;;;;;1.33;0.80;;;18.40;60.70;;;;;;5061307;28;20213;-70
2022/12/27 12:45:08;;;;;;;1.23;0.80;;;18.50;60.80;;;;;;5059185;28;20319;-69
2022/12/27 12:48:12;;;;;;;1.30;0.95;;;18.40;60.60;;;;;;5064763;28;20200;-69
2022/12/27 12:51:15;;;;;;;1.02;0.90;;;18.40;60.60;;;;;;5059236;28;20202;-69
2022/12/27 12:54:00;;;;;;;0.95;0.90;;;18.40;60.70;;;;;;5062151;28;20213;-70
2022/12/27 12:57:22;;;;;;;1.25;0.75;;;18.40;60.70;;;;;;5061392;28;20182;-69
2022/12/27 13:00:23;;;;;;;1.10;1.00;;;18.40;60.60;;;;;;5052472;28;20226;-69
2022/12/27 13:03:33;;;;;;;0.75;0.65;;;18.40;60.70;;;;;;5079874;28;20217;-69
2022/12/27 13:06:33;;;;;;;1.02;0.70;;;18.40;60.60;;;;;;5072855;28;20791;-69
2022/12/27 13:09:13;;;;;;;0.80;0.80;;;18.40;60.70;;;;;;5055614;28;20197;-69
2022/12/27 13:12:08;;;;;;;1.08;0.98;;;18.50;60.80;;;;;;5066819;28;20217;-69
2022/12/27 13:14:47;;;;;;;1.00;0.80;;;18.50;60.80;;;;;;5066487;28;20190;-69
2022/12/27 13:17:27;;;;;;;0.95;0.80;;;18.50;60.70;;;;;;5041256;28;20177;-69
2022/12/27 13:20:34;;;;;;;3.03;1.10;;;18.50;60.70;;;;;;5072253;28;20210;-69
2022/12/27 13:23:37;;;;;;;0.70;0.70;;;18.40;60.60;;;;;;5049344;28;20225;-69
2022/12/27 13:26:12;;;;;;;0.77;0.77;;;18.50;60.80;;;;;;5073177;28;20185;-69
2022/12/27 13:29:25;;;;;;;0.80;0.65;;;18.50;60.70;;;;;;5063915;28;20194;-69
2022/12/27 13:32:04;;;;;;;1.10;0.70;;;18.50;60.70;;;;;;5045766;28;20206;-69
2022/12/27 13:35:16;;;;;;;0.70;0.60;;;18.40;60.60;;;;;;5073447;28;20185;-69
2022/12/27 13:38:36;;;;;;;1.77;0.70;;;18.50;60.70;;;;;;5052846;28;20283;-69
2022/12/27 13:41:27;;;;;;;1.40;0.88;;;18.50;61.10;;;;;;5015148;28;20241;-70
2022/12/27 13:44:33;;;;;;;1.23;0.80;;;18.40;60.60;;;;;;5070537;28;20213;-70
2022/12/27 13:47:14;;;;;;;0.65;0.65;;;18.50;60.80;;;;;;5070827;28;20177;-70
2022/12/27 13:50:22;;;;;;;0.75;0.70;;;18.50;60.70;;;;;;5085720;28;20204;-70
2022/12/27 13:53:38;;;;;;;2.45;0.93;;;18.50;60.70;;;;;;5072143;28;20215;-70
2022/12/27 13:56:18;;;;;;;1.65;0.90;;;18.40;60.50;;;;;;5047922;28;20182;-70
2022/12/27 13:59:02;;;;;;;1.20;0.80;;;18.50;60.70;;;;;;5054891;28;20572;-70
2022/12/27 14:01:35;;;;;;;2.00;0.82;;;18.50;60.60;;;;;;5064149;28;20220;-70
2022/12/27 14:04:36;;;;;;;1.15;0.88;;;18.50;60.60;;;;;;5080054;28;20190;-70
2022/12/27 14:07:44;;;;;;;0.80;0.80;;;18.40;60.40;;;;;;5053327;28;20197;-70
2022/12/27 14:10:22;;;;;;;1.08;0.90;;;18.50;60.60;;;;;;5059357;28;20193;-72
2022/12/27 14:12:58;;;;;;;1.10;1.00;;;18.50;60.60;;;;;;5059889;28;20225;-70
2022/12/27 14:16:16;;;;;;;1.45;1.17;;;18.50;60.60;;;;;;5051991;28;20201;-70
2022/12/27 14:19:14;;;;;;;1.67;1.10;;;18.50;60.50;;;;;;5058788;28;20209;-70
2022/12/27 14:21:54;;;;;;;1.27;0.90;;;18.40;60.50;;;;;;5082925;28;20343;-70
2022/12/27 14:24:44;;;;;;;1.20;1.10;;;18.40;60.50;;;;;;5067880;28;20182;-70
2022/12/27 14:27:50;;;;;;;1.50;0.90;;;18.50;60.60;;;;;;5059456;28;20770;-70
2022/12/27 14:30:43;;;;;;;0.73;0.73;;;18.40;60.50;;;;;;5059657;28;20269;-70
2022/12/27 14:33:30;;;;;;;2.72;1.00;;;18.40;60.50;;;;;;5076334;28;20214;-70
2022/12/27 14:36:48;;;;;;;1.52;0.90;;;18.40;60.60;;;;;;5065711;28;20197;-70
2022/12/27 14:39:50;;;;;;;2.10;1.13;;;18.40;60.50;;;;;;5059218;28;20694;-70
2022/12/27 14:42:49;;;;;;;2.58;1.20;;;18.40;60.50;;;;;;5077230;28;20267;-70
2022/12/27 14:45:43;;;;;;;1.95;1.10;;;18.50;60.60;;;;;;5047852;28;20197;-70
2022/12/27 14:48:17;;;;;;;2.25;1.00;;;18.50;60.50;;;;;;5062354;28;20190;-70
2022/12/27 14:51:21;;;;;;;2.90;1.50;;;18.40;60.30;;;;;;5057708;28;20276;-70
2022/12/27 14:54:41;;;;;;;2.42;0.90;;;18.50;60.50;;;;;;5062144;28;20185;-70
2022/12/27 14:57:49;;;;;;;1.90;1.20;;;18.40;60.40;;;;;;5035401;28;20198;-70
2022/12/27 15:00:24;;;;;;;1.48;0.90;;;18.50;60.50;;;;;;5057686;28;20206;-70
2022/12/27 15:03:22;;;;;;;1.38;1.15;;;18.50;61.30;;;;;;5051945;28;20305;-70
2022/12/27 15:05:59;;;;;;;1.70;1.30;;;18.40;60.40;;;;;;5061205;28;20189;-70
2022/12/27 15:09:00;;;;;;;1.20;1.10;;;18.40;60.50;;;;;;5056492;28;20198;-70
2022/12/27 15:12:05;;;;;;;1.63;1.20;;;18.50;60.60;;;;;;5048765;28;20261;-71
2022/12/27 15:15:01;;;;;;;2.55;1.10;;;18.50;60.50;;;;;;5070795;28;20197;-71
2022/12/27 15:17:57;;;;;;;1.33;1.20;;;18.50;60.60;;;;;;5063060;28;20282;-70
2022/12/27 15:21:22;;;;;;;2.17;1.50;;;18.40;60.40;;;;;;5052266;28;20205;-71
2022/12/27 15:24:27;;;;;;;1.77;1.27;;;18.40;60.60;;;;;;5062572;28;20201;-70